createdAt,value
2023-03-06T00:03:42.188Z,77.42
2023-03-06T00:10:45.866Z,77.67
2023-03-06T00:17:50.473Z,77.74
2023-03-06T00:24:54.247Z,77.88
2023-03-06T00:32:00.778Z,78.05
2023-03-06T00:39:03.711Z,78.17
2023-03-06T00:46:07.503Z,79.16
2023-03-06T00:53:12.180Z,79.28
2023-03-06T01:00:15.890Z,79.31
2023-03-06T01:07:19.513Z,79.48
2023-03-06T01:14:23.124Z,79.71
2023-03-06T01:21:27.773Z,79.81
2023-03-06T01:28:31.272Z,80.03
2023-03-06T01:35:34.977Z,79.87
2023-03-06T01:42:39.601Z,80.40
2023-03-06T01:49:55.149Z,80.22
2023-03-06T01:56:59.795Z,80.15
2023-03-06T02:03:52.645Z,80.08
2023-03-06T02:10:56.377Z,79.69
2023-03-06T02:18:02.194Z,79.72
2023-03-06T02:25:19.134Z,80.09
2023-03-06T02:32:22.774Z,79.81
2023-03-06T02:39:28.830Z,79.25
2023-03-06T02:46:35.513Z,79.29
2023-03-06T02:53:41.020Z,79.53
2023-03-06T03:00:44.842Z,79.41
2023-03-06T03:07:35.352Z,79.60
2023-03-06T03:14:38.798Z,79.31
2023-03-06T03:21:42.356Z,79.42
2023-03-06T03:28:50.680Z,79.45
2023-03-06T03:35:54.241Z,79.26
2023-03-06T03:42:58.047Z,79.40
2023-03-06T03:50:01.808Z,79.08
2023-03-06T03:57:05.593Z,79.12
2023-03-06T04:04:09.120Z,79.25
2023-03-06T04:11:13.173Z,79.24
2023-03-06T04:18:16.693Z,79.19
2023-03-06T04:25:20.444Z,79.30
2023-03-06T04:32:24.237Z,79.54
2023-03-06T04:39:27.913Z,79.27
2023-03-06T04:46:24.158Z,79.40
2023-03-06T04:53:26.878Z,79.28
2023-03-06T05:00:31.587Z,79.42
2023-03-06T05:07:41.607Z,80.08
2023-03-06T05:14:47.664Z,80.32
2023-03-06T05:21:52.458Z,80.83
2023-03-06T05:28:49.701Z,80.72
2023-03-06T05:35:53.312Z,80.52
2023-03-06T05:42:58.831Z,80.73
2023-03-06T05:50:02.781Z,80.51
2023-03-06T05:56:57.254Z,80.63
2023-03-06T06:03:20.523Z,80.56
2023-03-06T06:09:42.625Z,80.55
2023-03-06T06:16:51.906Z,80.49
2023-03-06T06:23:55.459Z,80.27
2023-03-06T06:30:59.095Z,80.10
2023-03-06T06:38:02.694Z,79.80
2023-03-06T06:45:07.540Z,79.28
2023-03-06T06:52:10.699Z,78.98
2023-03-06T06:59:17.014Z,78.61
2023-03-06T07:05:46.129Z,78.15
2023-03-06T07:12:51.808Z,77.25
2023-03-06T07:19:38.007Z,77.09
2023-03-06T07:26:22.588Z,76.27
2023-03-06T07:33:26.808Z,76.07
2023-03-06T07:40:31.589Z,74.85
2023-03-06T07:47:35.201Z,73.78
2023-03-06T07:54:38.665Z,73.06
2023-03-06T08:01:36.158Z,72.83
2023-03-06T08:08:38.536Z,72.32
2023-03-06T08:15:42.083Z,71.90
2023-03-06T08:22:48.298Z,71.39
2023-03-06T08:29:51.922Z,69.74
2023-03-06T08:36:45.928Z,67.73
2023-03-06T08:43:40.530Z,66.45
2023-03-06T08:50:44.241Z,64.53
2023-03-06T08:57:49.496Z,63.41
2023-03-06T09:04:14.251Z,63.54
2023-03-06T09:11:17.554Z,63.92
2023-03-06T09:18:21.336Z,63.24
2023-03-06T09:25:01.075Z,63.34
2023-03-06T09:31:55.702Z,63.77
2023-03-06T09:39:00.468Z,62.80
2023-03-06T09:46:06.161Z,63.10
2023-03-06T09:53:22.987Z,62.93
2023-03-06T10:00:23.171Z,61.47
2023-03-06T10:07:38.862Z,60.21
2023-03-06T10:14:38.095Z,60.82
2023-03-06T10:21:52.752Z,59.17
2023-03-06T10:28:43.389Z,54.44
2023-03-06T10:35:18.085Z,54.35
2023-03-06T10:41:46.347Z,52.49
2023-03-06T10:47:53.323Z,53.56
2023-03-06T10:54:17.674Z,54.39
2023-03-06T11:01:26.112Z,51.12
2023-03-06T11:08:34.685Z,53.73
2023-03-06T11:15:20.233Z,52.77
2023-03-06T11:22:19.516Z,54.25
2023-03-06T11:29:01.966Z,54.41
2023-03-06T11:35:35.336Z,55.30
2023-03-06T11:42:11.238Z,54.99
2023-03-06T11:48:52.632Z,54.12
2023-03-06T11:54:55.862Z,53.11
2023-03-06T12:01:51.294Z,52.92
2023-03-06T12:09:04.280Z,53.23
2023-03-06T12:16:27.873Z,53.31
2023-03-06T12:23:15.789Z,53.07
2023-03-06T12:30:08.324Z,52.26
2023-03-06T12:37:17.212Z,53.37
2023-03-06T12:44:26.071Z,53.77
2023-03-06T12:51:06.801Z,54.99
2023-03-06T12:57:55.564Z,54.68
2023-03-06T13:05:01.582Z,54.91
2023-03-06T13:11:45.344Z,54.89
2023-03-06T13:19:03.984Z,49.42
2023-03-06T13:25:49.796Z,46.61
2023-03-06T13:32:45.601Z,47.55
2023-03-06T13:39:37.548Z,47.43
2023-03-06T13:46:06.072Z,49.78
2023-03-06T13:52:58.282Z,49.37
2023-03-06T13:58:51.714Z,49.13
2023-03-06T14:05:19.833Z,52.08
2023-03-06T14:12:23.075Z,58.41
2023-03-06T14:19:13.676Z,65.22
2023-03-06T14:25:59.136Z,67.24
2023-03-06T14:33:02.508Z,67.62
2023-03-06T14:39:00.846Z,67.71
2023-03-06T14:44:53.952Z,67.58
2023-03-06T14:51:39.983Z,66.81
2023-03-06T14:58:27.811Z,66.19
2023-03-06T15:05:28.396Z,66.26
2023-03-06T15:12:42.527Z,66.04
2023-03-06T15:19:03.466Z,65.37
2023-03-06T15:26:10.062Z,65.43
2023-03-06T15:32:53.125Z,65.76
2023-03-06T15:39:40.258Z,66.05
2023-03-06T15:46:26.688Z,66.49
2023-03-06T15:53:30.005Z,66.54
2023-03-06T16:00:26.694Z,66.34
2023-03-06T16:07:02.089Z,66.22
2023-03-06T16:13:55.352Z,66.08
2023-03-06T16:20:28.260Z,65.76
2023-03-06T16:27:36.336Z,65.55
2023-03-06T16:34:19.818Z,65.34
2023-03-06T16:41:23.143Z,65.29
2023-03-06T16:47:56.095Z,65.25
2023-03-06T16:54:31.175Z,65.00
2023-03-06T17:01:34.667Z,64.85
2023-03-06T17:08:07.800Z,65.12
2023-03-06T17:15:01.676Z,64.96
2023-03-06T17:21:28.751Z,64.61
2023-03-06T17:28:14.703Z,64.13
2023-03-06T17:34:56.117Z,64.17
2023-03-06T17:41:05.496Z,64.46
2023-03-06T17:47:41.984Z,63.77
2023-03-06T17:54:47.604Z,62.70
2023-03-06T18:01:03.653Z,62.73
2023-03-06T18:07:07.431Z,62.44
2023-03-06T18:13:42.876Z,62.70
2023-03-06T18:19:24.834Z,62.71
2023-03-06T18:25:29.571Z,62.96
2023-03-06T18:32:29.254Z,63.05
2023-03-06T18:39:09.778Z,63.36
2023-03-06T18:45:32.840Z,63.47
2023-03-06T18:51:53.828Z,63.53
2023-03-06T18:58:04.007Z,63.95
2023-03-06T19:04:57.649Z,64.43
2023-03-06T19:11:57.038Z,64.75
2023-03-06T19:18:29.356Z,65.07
2023-03-06T19:25:23.500Z,65.39
2023-03-06T19:31:50.915Z,65.78
2023-03-06T19:39:03.728Z,66.16
2023-03-06T19:45:59.225Z,66.73
2023-03-06T19:52:33.439Z,67.27
2023-03-06T19:59:38.009Z,67.62
2023-03-06T20:05:28.048Z,67.83
2023-03-06T20:12:31.807Z,68.03
2023-03-06T20:18:35.801Z,68.47
2023-03-06T20:25:11.914Z,68.78
2023-03-06T20:31:49.324Z,69.17
2023-03-06T20:38:34.479Z,69.83
2023-03-06T20:45:23.629Z,70.16
2023-03-06T20:52:04.703Z,70.44
2023-03-06T20:58:35.037Z,70.75
2023-03-06T21:05:38.096Z,70.65
2023-03-06T21:12:41.556Z,70.63
2023-03-06T21:19:15.685Z,71.20
2023-03-06T21:26:19.382Z,71.21
2023-03-06T21:33:04.431Z,71.33
2023-03-06T21:40:00.759Z,71.33
2023-03-06T21:47:06.560Z,71.54
2023-03-06T21:53:53.114Z,71.49
2023-03-06T22:00:38.303Z,71.49
2023-03-06T22:07:36.309Z,71.45
2023-03-06T22:14:40.174Z,71.57
2023-03-06T22:21:19.517Z,71.56
2023-03-06T22:28:06.528Z,71.97
2023-03-06T22:35:18.925Z,72.03
2023-03-06T22:42:06.153Z,72.14
2023-03-06T22:48:53.873Z,72.11
2023-03-06T22:55:58.283Z,71.92
2023-03-06T23:02:49.097Z,71.87
2023-03-06T23:09:52.752Z,71.64
2023-03-06T23:16:54.476Z,71.67
2023-03-06T23:23:48.589Z,71.48
2023-03-06T23:30:45.259Z,71.34
2023-03-06T23:37:48.790Z,71.33
2023-03-06T23:44:51.323Z,71.33
2023-03-06T23:51:39.412Z,71.29
2023-03-06T23:58:42.960Z,71.07
